createdAt,value
2019-04-25T00:01:21.582Z,10.90
2019-04-25T00:03:47.980Z,10.90
2019-04-25T00:06:14.497Z,10.80
2019-04-25T00:08:41.322Z,10.80
2019-04-25T00:11:09.145Z,10.80
2019-04-25T00:13:36.299Z,10.80
2019-04-25T00:16:02.792Z,10.80
2019-04-25T00:18:28.938Z,10.70
2019-04-25T00:21:01.205Z,10.70
2019-04-25T00:23:27.693Z,10.70
2019-04-25T00:25:56.862Z,10.70
2019-04-25T00:28:23.024Z,10.60
2019-04-25T00:30:49.310Z,10.80
2019-04-25T00:33:15.574Z,10.60
2019-04-25T00:35:43.475Z,10.60
2019-04-25T00:38:09.820Z,10.60
2019-04-25T00:40:36.110Z,10.50
2019-04-25T00:43:02.277Z,10.50
2019-04-25T00:45:28.449Z,10.40
2019-04-25T00:47:54.620Z,10.50
2019-04-25T00:50:21.917Z,10.40
2019-04-25T00:52:48.361Z,10.40
2019-04-25T00:55:26.155Z,10.30
2019-04-25T00:57:44.788Z,10.40
2019-04-25T01:00:14.317Z,10.30
2019-04-25T01:02:43.424Z,10.30
2019-04-25T01:05:11.649Z,10.30
2019-04-25T01:07:37.972Z,10.20
2019-04-25T01:10:07.518Z,10.10
2019-04-25T01:12:33.741Z,10.10
2019-04-25T01:15:01.538Z,10.00
2019-04-25T01:17:28.397Z,9.90
2019-04-25T01:19:56.919Z,9.90
2019-04-25T01:22:23.236Z,9.90
2019-04-25T01:24:49.518Z,9.90
2019-04-25T01:27:16.188Z,9.70
2019-04-25T01:29:42.363Z,9.70
2019-04-25T01:32:10.446Z,9.60
2019-04-25T01:34:41.895Z,9.50
2019-04-25T01:37:19.189Z,9.50
2019-04-25T01:39:47.531Z,9.50
2019-04-25T01:42:33.783Z,9.40
2019-04-25T01:45:00.430Z,9.30
2019-04-25T01:47:26.752Z,9.30
2019-04-25T01:49:54.582Z,9.30
2019-04-25T01:52:21.050Z,9.30
2019-04-25T01:54:47.243Z,9.30
2019-04-25T01:57:23.992Z,9.40
2019-04-25T01:59:51.353Z,9.40
2019-04-25T02:02:19.673Z,9.30
2019-04-25T02:04:45.953Z,9.30
2019-04-25T02:07:13.508Z,9.30
2019-04-25T02:09:39.997Z,9.30
2019-04-25T02:12:10.605Z,9.20
2019-04-25T02:14:36.980Z,9.20
2019-04-25T02:17:04.561Z,9.10
2019-04-25T02:19:30.944Z,9.10
2019-04-25T02:21:57.814Z,9.20
2019-04-25T02:24:24.095Z,9.10
2019-04-25T02:26:50.302Z,9.10
2019-04-25T02:29:16.690Z,9.00
2019-04-25T02:31:45.040Z,9.10
2019-04-25T02:34:10.930Z,9.00
2019-04-25T02:36:37.232Z,8.90
2019-04-25T02:39:27.209Z,8.90
2019-04-25T02:41:56.003Z,8.90
2019-04-25T02:44:21.450Z,8.90
2019-04-25T02:46:54.526Z,8.90
2019-04-25T02:49:39.673Z,9.00
2019-04-25T02:52:12.908Z,8.90
2019-04-25T02:54:36.175Z,9.00
2019-04-25T02:57:05.170Z,9.00
2019-04-25T02:59:30.426Z,9.00
2019-04-25T03:01:57.591Z,9.00
2019-04-25T03:04:24.901Z,9.00
2019-04-25T03:06:51.108Z,9.00
2019-04-25T03:09:17.291Z,9.00
2019-04-25T03:11:45.149Z,9.10
2019-04-25T03:14:11.548Z,9.10
2019-04-25T03:16:37.826Z,9.10
2019-04-25T03:19:25.927Z,9.10
2019-04-25T03:21:59.766Z,9.10
2019-04-25T03:24:28.554Z,8.90
2019-04-25T03:26:55.340Z,8.80
2019-04-25T03:29:24.669Z,8.80
2019-04-25T03:31:50.852Z,8.70
2019-04-25T03:34:20.628Z,8.70
2019-04-25T03:36:45.136Z,8.70
2019-04-25T03:39:11.605Z,8.60
2019-04-25T03:41:37.781Z,8.60
2019-04-25T03:44:05.189Z,8.60
2019-04-25T03:46:33.355Z,8.60
2019-04-25T03:48:59.688Z,8.60
2019-04-25T03:51:25.849Z,8.50
2019-04-25T03:53:53.484Z,8.60
2019-04-25T03:56:19.889Z,8.50
2019-04-25T03:58:46.071Z,8.50
2019-04-25T04:01:14.982Z,8.50
2019-04-25T04:03:40.668Z,8.60
2019-04-25T04:06:08.292Z,8.50
2019-04-25T04:08:35.778Z,8.60
2019-04-25T04:11:02.011Z,8.60
2019-04-25T04:13:28.210Z,8.60
2019-04-25T04:15:54.385Z,8.60
2019-04-25T04:18:26.910Z,8.50
2019-04-25T04:20:58.213Z,8.60
2019-04-25T04:23:33.245Z,8.50
2019-04-25T04:25:59.769Z,8.60
2019-04-25T04:28:25.936Z,8.70
2019-04-25T04:30:53.958Z,8.70
2019-04-25T04:33:29.612Z,8.80
2019-04-25T04:35:48.645Z,8.80
2019-04-25T04:38:15.515Z,8.70
2019-04-25T04:40:44.271Z,8.50
2019-04-25T04:43:11.735Z,8.60
2019-04-25T04:45:38.029Z,8.70
2019-04-25T04:48:04.253Z,8.80
2019-04-25T04:50:33.681Z,8.70
2019-04-25T04:52:59.941Z,9.00
2019-04-25T04:55:26.135Z,9.50
2019-04-25T04:57:52.340Z,10.10
2019-04-25T05:00:18.889Z,11.10
2019-04-25T05:03:02.126Z,12.20
2019-04-25T05:05:36.796Z,12.90
2019-04-25T05:08:21.787Z,14.00
2019-04-25T05:10:47.976Z,15.10
2019-04-25T05:13:15.740Z,15.50
2019-04-25T05:15:43.018Z,15.40
2019-04-25T05:18:11.542Z,16.20
2019-04-25T05:20:38.587Z,16.30
2019-04-25T05:23:04.802Z,16.30
2019-04-25T05:25:30.964Z,17.20
2019-04-25T05:28:02.457Z,17.90
2019-04-25T05:30:27.272Z,18.60
2019-04-25T05:32:54.364Z,19.40
2019-04-25T05:35:20.697Z,19.10
2019-04-25T05:37:46.936Z,18.70
2019-04-25T05:40:15.113Z,18.80
2019-04-25T05:42:49.711Z,19.70
2019-04-25T05:45:18.914Z,20.00
2019-04-25T05:47:45.860Z,20.30
2019-04-25T05:50:13.872Z,21.00
2019-04-25T05:52:41.353Z,21.90
2019-04-25T05:55:07.825Z,22.10
2019-04-25T05:57:45.249Z,22.40
2019-04-25T06:00:05.512Z,22.80
2019-04-25T06:02:34.018Z,22.10
2019-04-25T06:05:00.374Z,22.40
2019-04-25T06:07:27.914Z,23.30
2019-04-25T06:09:56.082Z,22.70
2019-04-25T06:12:24.757Z,23.50
2019-04-25T06:14:52.959Z,24.10
2019-04-25T06:17:30.682Z,24.00
2019-04-25T06:19:58.382Z,24.30
2019-04-25T06:22:29.385Z,24.70
2019-04-25T06:24:59.988Z,26.00
2019-04-25T06:27:28.498Z,26.40
2019-04-25T06:29:58.968Z,25.90
2019-04-25T06:32:25.812Z,25.60
2019-04-25T06:34:54.252Z,25.90
2019-04-25T06:37:21.331Z,27.20
2019-04-25T06:39:47.675Z,27.50
2019-04-25T06:42:13.934Z,26.80
2019-04-25T06:44:56.872Z,27.10
2019-04-25T06:47:40.112Z,28.40
2019-04-25T06:50:06.613Z,29.50
2019-04-25T06:52:35.270Z,30.00
2019-04-25T06:55:00.871Z,29.70
2019-04-25T06:57:28.997Z,28.80
2019-04-25T06:59:55.139Z,29.20
2019-04-25T07:02:22.740Z,30.10
2019-04-25T07:04:51.554Z,29.70
2019-04-25T07:07:17.789Z,30.10
2019-04-25T07:09:43.994Z,29.80
2019-04-25T07:12:10.227Z,31.20
2019-04-25T07:14:36.855Z,29.90
2019-04-25T07:17:04.326Z,30.50
2019-04-25T07:19:30.710Z,29.50
2019-04-25T07:21:57.385Z,31.40
2019-04-25T07:24:24.842Z,32.50
2019-04-25T07:26:53.880Z,32.60
2019-04-25T07:29:23.536Z,31.70
2019-04-25T07:31:57.844Z,31.90
2019-04-25T07:34:26.506Z,32.60
2019-04-25T07:36:53.631Z,31.60
2019-04-25T07:39:19.858Z,31.40
2019-04-25T07:41:46.031Z,32.20
2019-04-25T07:44:12.228Z,31.00
2019-04-25T07:46:40.019Z,32.00
2019-04-25T07:49:07.630Z,33.60
2019-04-25T07:51:34.583Z,32.20
2019-04-25T07:54:02.333Z,33.90
2019-04-25T07:56:29.410Z,33.40
2019-04-25T07:59:15.555Z,32.20
2019-04-25T08:01:43.484Z,33.80
2019-04-25T08:04:09.984Z,34.20
2019-04-25T08:06:36.149Z,34.30
2019-04-25T08:09:08.456Z,35.20
2019-04-25T08:11:36.232Z,36.10
2019-04-25T08:14:08.370Z,36.30
2019-04-25T08:16:37.214Z,36.70
2019-04-25T08:19:04.081Z,35.90
2019-04-25T08:21:32.112Z,35.30
2019-04-25T08:24:00.244Z,33.60
2019-04-25T08:26:26.429Z,34.40
2019-04-25T08:28:57.512Z,33.70
2019-04-25T08:31:20.969Z,33.60
2019-04-25T08:33:47.182Z,33.00
2019-04-25T08:36:13.734Z,33.30
2019-04-25T08:38:40.337Z,35.80
2019-04-25T08:41:06.558Z,34.50
2019-04-25T08:43:36.330Z,35.70
2019-04-25T08:46:04.108Z,34.50
2019-04-25T08:48:34.331Z,33.60
2019-04-25T08:51:05.135Z,34.90
2019-04-25T08:53:45.192Z,34.30
2019-04-25T08:56:15.801Z,34.30
2019-04-25T08:58:46.660Z,32.50
2019-04-25T09:01:32.434Z,31.90
2019-04-25T09:04:03.613Z,31.40
2019-04-25T09:06:29.645Z,32.30
2019-04-25T09:08:55.866Z,32.90
2019-04-25T09:11:22.112Z,33.30
2019-04-25T09:13:48.273Z,33.30
2019-04-25T09:16:15.520Z,32.20
2019-04-25T09:18:41.865Z,31.40
2019-04-25T09:21:08.058Z,31.30
2019-04-25T09:23:36.461Z,32.30
2019-04-25T09:26:03.965Z,33.60
2019-04-25T09:28:31.281Z,33.40
2019-04-25T09:30:57.454Z,33.40
2019-04-25T09:33:23.673Z,32.80
2019-04-25T09:35:49.853Z,32.50
2019-04-25T09:38:16.115Z,32.20
2019-04-25T09:40:44.147Z,32.50
2019-04-25T09:43:10.526Z,32.90
2019-04-25T09:45:45.192Z,31.60
2019-04-25T09:48:30.954Z,31.10
2019-04-25T09:51:05.628Z,31.30
2019-04-25T09:53:33.966Z,34.70
2019-04-25T09:56:05.176Z,35.70
2019-04-25T09:58:44.059Z,37.90
2019-04-25T10:01:16.029Z,39.00
2019-04-25T10:03:43.524Z,39.30
2019-04-25T10:06:13.938Z,37.60
2019-04-25T10:08:41.056Z,37.60
2019-04-25T10:11:08.722Z,37.30
2019-04-25T10:13:34.936Z,38.80
2019-04-25T10:16:04.025Z,38.70
2019-04-25T10:18:31.117Z,38.30
2019-04-25T10:20:58.389Z,38.10
2019-04-25T10:23:24.633Z,37.70
2019-04-25T10:25:50.900Z,37.00
2019-04-25T10:28:17.085Z,36.80
2019-04-25T10:30:45.538Z,36.70
2019-04-25T10:33:14.128Z,37.20
2019-04-25T10:35:47.912Z,36.00
2019-04-25T10:38:08.897Z,35.90
2019-04-25T10:40:35.281Z,34.40
2019-04-25T10:43:01.533Z,32.50
2019-04-25T10:45:27.723Z,32.30
2019-04-25T10:47:55.269Z,32.10
2019-04-25T10:50:23.714Z,32.60
2019-04-25T10:52:50.158Z,34.20
2019-04-25T10:55:16.497Z,33.20
2019-04-25T10:57:43.682Z,32.40
2019-04-25T11:00:20.566Z,32.60
2019-04-25T11:02:47.506Z,33.00
2019-04-25T11:05:15.786Z,31.90
2019-04-25T11:07:42.007Z,33.20
2019-04-25T11:10:08.357Z,34.80
2019-04-25T11:12:34.514Z,35.40
2019-04-25T11:15:00.967Z,34.20
2019-04-25T11:17:27.124Z,34.00
2019-04-25T11:19:54.307Z,34.30
2019-04-25T11:22:21.472Z,34.00
2019-04-25T11:24:48.567Z,35.00
2019-04-25T11:27:14.922Z,33.40
2019-04-25T11:29:41.651Z,33.10
2019-04-25T11:32:08.901Z,32.30
2019-04-25T11:34:35.057Z,32.90
2019-04-25T11:37:01.439Z,33.00
2019-04-25T11:39:29.602Z,32.10
2019-04-25T11:41:55.986Z,31.40
2019-04-25T11:44:22.139Z,32.10
2019-04-25T11:46:48.350Z,31.70
2019-04-25T11:49:15.270Z,31.50
2019-04-25T11:51:42.654Z,31.00
2019-04-25T11:54:09.472Z,30.20
2019-04-25T11:56:35.837Z,29.80
2019-04-25T11:59:02.348Z,28.80
2019-04-25T12:01:29.586Z,27.90
2019-04-25T12:03:56.916Z,27.20
2019-04-25T12:06:24.361Z,27.00
2019-04-25T12:08:51.479Z,26.70
2019-04-25T12:11:18.123Z,26.60
2019-04-25T12:13:45.999Z,26.30
2019-04-25T12:16:14.277Z,26.60
2019-04-25T12:18:40.720Z,27.00
2019-04-25T12:21:06.979Z,27.10
2019-04-25T12:23:53.560Z,27.30
2019-04-25T12:26:19.878Z,27.30
2019-04-25T12:28:47.231Z,26.80
2019-04-25T12:31:14.798Z,27.10
2019-04-25T12:33:41.300Z,27.00
2019-04-25T12:36:07.753Z,27.10
2019-04-25T12:38:35.473Z,27.40
2019-04-25T12:41:01.885Z,27.40
2019-04-25T12:43:29.952Z,27.60
2019-04-25T12:45:58.305Z,28.00
2019-04-25T12:48:24.623Z,28.30
2019-04-25T12:50:52.051Z,28.50
2019-04-25T12:53:18.464Z,28.00
2019-04-25T12:55:44.667Z,27.90
2019-04-25T12:58:10.932Z,27.80
2019-04-25T13:00:47.547Z,27.90
2019-04-25T13:03:06.944Z,27.60
2019-04-25T13:05:34.211Z,26.90
2019-04-25T13:08:01.122Z,26.60
2019-04-25T13:10:28.515Z,26.60
2019-04-25T13:12:55.454Z,26.50
2019-04-25T13:15:25.234Z,26.10
2019-04-25T13:17:50.181Z,26.20
2019-04-25T13:20:16.353Z,26.30
2019-04-25T13:22:43.721Z,26.70
2019-04-25T13:25:11.886Z,26.50
2019-04-25T13:27:39.973Z,25.90
2019-04-25T13:30:24.890Z,25.20
2019-04-25T13:33:08.597Z,25.10
2019-04-25T13:35:54.394Z,24.90
2019-04-25T13:38:20.850Z,24.90
2019-04-25T13:40:47.235Z,25.10
2019-04-25T13:43:13.462Z,25.30
2019-04-25T13:45:39.688Z,25.00
2019-04-25T13:48:05.960Z,24.90
2019-04-25T13:50:33.986Z,24.90
2019-04-25T13:53:00.565Z,25.10
2019-04-25T13:55:26.721Z,25.40
2019-04-25T13:57:53.384Z,25.30
2019-04-25T14:00:24.750Z,25.00
2019-04-25T14:02:51.942Z,24.80
2019-04-25T14:05:20.301Z,25.00
2019-04-25T14:07:47.393Z,25.20
2019-04-25T14:10:14.293Z,25.10
2019-04-25T14:12:41.205Z,25.00
2019-04-25T14:15:09.905Z,24.90
2019-04-25T14:17:55.111Z,25.10
2019-04-25T14:20:41.666Z,25.20
2019-04-25T14:23:15.488Z,24.90
2019-04-25T14:25:54.318Z,24.80
2019-04-25T14:28:26.150Z,24.70
2019-04-25T14:30:52.928Z,24.60
2019-04-25T14:33:19.113Z,24.50
2019-04-25T14:35:45.472Z,24.60
2019-04-25T14:38:11.661Z,24.40
2019-04-25T14:40:37.818Z,24.20
2019-04-25T14:43:05.090Z,24.20
2019-04-25T14:45:43.016Z,24.20
2019-04-25T14:47:59.357Z,24.10
2019-04-25T14:50:25.789Z,24.10
2019-04-25T14:52:51.997Z,23.90
2019-04-25T14:55:23.670Z,23.90
2019-04-25T14:57:50.944Z,24.00
2019-04-25T15:00:23.981Z,24.10
2019-04-25T15:02:50.204Z,24.20
2019-04-25T15:05:16.409Z,24.20
2019-04-25T15:07:42.994Z,24.20
2019-04-25T15:10:09.496Z,24.30
2019-04-25T15:12:36.798Z,24.10
2019-04-25T15:15:04.593Z,24.10
2019-04-25T15:17:43.466Z,24.30
2019-04-25T15:19:59.829Z,24.30
2019-04-25T15:22:25.989Z,24.40
2019-04-25T15:24:52.156Z,24.70
2019-04-25T15:27:18.381Z,25.10
2019-04-25T15:29:44.571Z,25.10
2019-04-25T15:32:26.184Z,25.20
2019-04-25T15:34:54.650Z,25.40
2019-04-25T15:37:22.728Z,25.20
2019-04-25T15:39:50.828Z,24.90
2019-04-25T15:42:34.104Z,24.90
2019-04-25T15:45:02.600Z,24.60
2019-04-25T15:47:30.756Z,24.50
2019-04-25T15:49:56.955Z,24.50
2019-04-25T15:52:24.237Z,24.70
2019-04-25T15:54:50.411Z,24.40
2019-04-25T15:57:16.609Z,24.30
2019-04-25T15:59:42.829Z,24.40
2019-04-25T16:02:11.088Z,24.50
2019-04-25T16:04:37.286Z,24.50
2019-04-25T16:07:04.384Z,24.60
2019-04-25T16:09:30.557Z,24.50
2019-04-25T16:11:56.824Z,24.50
2019-04-25T16:14:23.118Z,24.40
2019-04-25T16:16:49.384Z,24.60
2019-04-25T16:19:15.685Z,24.60
2019-04-25T16:21:42.203Z,24.40
2019-04-25T16:24:09.565Z,24.40
2019-04-25T16:26:35.734Z,24.60
2019-04-25T16:29:02.118Z,24.60
2019-04-25T16:31:29.164Z,24.50
2019-04-25T16:33:55.594Z,24.20
2019-04-25T16:36:21.775Z,23.80
2019-04-25T16:38:47.928Z,23.70
2019-04-25T16:41:14.205Z,23.50
2019-04-25T16:43:43.074Z,23.40
2019-04-25T16:46:09.460Z,23.30
2019-04-25T16:48:35.696Z,23.20
2019-04-25T16:51:01.996Z,23.30
2019-04-25T16:53:28.254Z,23.20
2019-04-25T16:55:55.511Z,23.10
2019-04-25T16:58:23.326Z,23.00
2019-04-25T17:00:51.629Z,23.10
2019-04-25T17:03:19.197Z,23.00
2019-04-25T17:05:45.554Z,22.90
2019-04-25T17:08:13.069Z,22.70
2019-04-25T17:10:39.503Z,22.60
2019-04-25T17:13:06.504Z,22.50
2019-04-25T17:15:38.378Z,22.40
2019-04-25T17:18:06.776Z,22.30
2019-04-25T17:20:34.946Z,22.20
2019-04-25T17:23:01.137Z,22.20
2019-04-25T17:25:27.493Z,22.10
2019-04-25T17:27:53.864Z,22.00
2019-04-25T17:30:21.169Z,21.90
2019-04-25T17:32:53.857Z,21.90
2019-04-25T17:35:33.658Z,21.80
2019-04-25T17:38:19.765Z,21.70
2019-04-25T17:40:45.963Z,21.70
2019-04-25T17:43:12.129Z,21.70
2019-04-25T17:45:39.117Z,21.60
2019-04-25T17:48:06.090Z,21.50
2019-04-25T17:50:32.932Z,21.50
2019-04-25T17:52:59.248Z,21.40
2019-04-25T17:55:25.414Z,21.30
2019-04-25T17:57:51.609Z,21.20
2019-04-25T18:00:28.689Z,21.10
2019-04-25T18:02:58.871Z,21.00
2019-04-25T18:05:23.002Z,20.90
2019-04-25T18:07:49.193Z,20.80
2019-04-25T18:10:15.477Z,20.70
2019-04-25T18:12:42.231Z,20.70
2019-04-25T18:15:11.053Z,20.60
2019-04-25T18:17:38.068Z,20.50
2019-04-25T18:20:10.796Z,20.50
2019-04-25T18:22:49.078Z,20.40
2019-04-25T18:25:29.549Z,20.30
2019-04-25T18:27:57.616Z,20.20
2019-04-25T18:30:23.907Z,20.10
2019-04-25T18:32:58.006Z,20.00
2019-04-25T18:35:29.273Z,20.00
2019-04-25T18:37:57.336Z,19.90
2019-04-25T18:40:25.447Z,19.80
2019-04-25T18:42:53.621Z,19.80
2019-04-25T18:45:35.865Z,19.80
2019-04-25T18:48:03.173Z,19.70
2019-04-25T18:50:31.237Z,19.70
2019-04-25T18:52:59.334Z,19.60
2019-04-25T18:55:27.399Z,19.60
2019-04-25T18:57:55.506Z,19.60
2019-04-25T19:00:39.189Z,19.50
2019-04-25T19:03:32.007Z,19.40
2019-04-25T19:06:00.096Z,19.40
2019-04-25T19:08:26.281Z,19.30
2019-04-25T19:10:52.709Z,19.30
2019-04-25T19:13:19.037Z,19.20
2019-04-25T19:15:45.529Z,19.20
2019-04-25T19:18:11.741Z,19.20
2019-04-25T19:20:38.975Z,19.10
2019-04-25T19:23:07.308Z,19.00
2019-04-25T19:25:33.594Z,19.00
2019-04-25T19:27:59.865Z,19.00
2019-04-25T19:30:26.125Z,19.00
2019-04-25T19:32:52.302Z,19.00
2019-04-25T19:35:18.481Z,19.00
2019-04-25T19:37:44.800Z,18.90
2019-04-25T19:40:15.898Z,18.90
2019-04-25T19:42:44.530Z,18.80
2019-04-25T19:45:11.264Z,18.80
2019-04-25T19:47:37.444Z,18.80
2019-04-25T19:50:04.496Z,18.80
2019-04-25T19:52:31.061Z,18.80
2019-04-25T19:54:57.470Z,18.70
2019-04-25T19:57:23.653Z,18.60
2019-04-25T19:59:50.660Z,18.50
2019-04-25T20:02:18.969Z,18.40
2019-04-25T20:04:56.148Z,18.40
2019-04-25T20:07:27.194Z,18.40
2019-04-25T20:10:12.185Z,18.30
2019-04-25T20:12:44.004Z,18.30
2019-04-25T20:15:11.364Z,18.10
2019-04-25T20:17:37.543Z,18.10
2019-04-25T20:20:06.037Z,18.10
2019-04-25T20:22:32.228Z,18.10
2019-04-25T20:24:58.397Z,18.10
2019-04-25T20:27:24.614Z,18.10
2019-04-25T20:29:50.818Z,18.10
2019-04-25T20:32:16.994Z,18.10
2019-04-25T20:34:43.149Z,18.00
2019-04-25T20:37:09.371Z,18.00
2019-04-25T20:39:35.633Z,17.90
2019-04-25T20:42:01.796Z,17.80
2019-04-25T20:44:29.096Z,17.90
2019-04-25T20:46:55.265Z,17.80
2019-04-25T20:49:21.426Z,17.90
2019-04-25T20:51:48.460Z,17.90
2019-04-25T20:54:14.710Z,17.90
2019-04-25T20:56:40.887Z,17.80
2019-04-25T20:59:07.095Z,17.80
2019-04-25T21:01:33.297Z,17.70
2019-04-25T21:03:59.518Z,17.50
2019-04-25T21:06:33.677Z,17.40
2019-04-25T21:08:59.866Z,17.20
2019-04-25T21:11:26.033Z,17.10
2019-04-25T21:14:02.714Z,17.10
2019-04-25T21:16:46.850Z,17.10
2019-04-25T21:19:30.064Z,16.90
2019-04-25T21:21:56.572Z,16.70
2019-04-25T21:24:22.866Z,16.70
2019-04-25T21:26:49.050Z,16.90
2019-04-25T21:29:15.349Z,17.00
2019-04-25T21:31:41.659Z,17.10
2019-04-25T21:34:07.875Z,17.10
2019-04-25T21:36:36.241Z,17.10
2019-04-25T21:39:06.837Z,17.20
2019-04-25T21:41:40.382Z,17.20
2019-04-25T21:44:07.186Z,17.10
2019-04-25T21:46:33.549Z,16.90
2019-04-25T21:49:01.026Z,16.70
2019-04-25T21:51:30.154Z,16.50
2019-04-25T21:53:57.292Z,16.30
2019-04-25T21:56:23.922Z,16.10
2019-04-25T21:58:50.120Z,16.00
2019-04-25T22:01:20.902Z,15.90
2019-04-25T22:03:47.269Z,15.70
2019-04-25T22:06:13.968Z,15.70
2019-04-25T22:08:41.768Z,15.70
2019-04-25T22:11:08.048Z,15.70
2019-04-25T22:13:34.828Z,15.60
2019-04-25T22:16:01.669Z,15.60
2019-04-25T22:18:28.276Z,15.60
2019-04-25T22:20:55.801Z,15.50
2019-04-25T22:23:23.165Z,15.40
2019-04-25T22:25:49.736Z,15.30
2019-04-25T22:28:16.289Z,15.20
2019-04-25T22:30:44.695Z,15.20
2019-04-25T22:33:22.165Z,15.20
2019-04-25T22:35:53.289Z,15.10
2019-04-25T22:38:19.860Z,15.10
2019-04-25T22:40:46.036Z,15.10
2019-04-25T22:43:12.640Z,15.10
2019-04-25T22:45:39.129Z,15.00
2019-04-25T22:48:06.664Z,15.00
2019-04-25T22:50:33.849Z,14.90
2019-04-25T22:53:01.215Z,14.90
2019-04-25T22:55:28.113Z,14.80
2019-04-25T22:57:54.336Z,14.80
2019-04-25T23:00:28.212Z,14.80
2019-04-25T23:02:58.243Z,14.80
2019-04-25T23:05:28.810Z,14.80
2019-04-25T23:07:55.268Z,14.70
2019-04-25T23:10:21.856Z,14.60
2019-04-25T23:12:48.015Z,14.60
2019-04-25T23:15:14.580Z,14.50
2019-04-25T23:17:40.763Z,14.30
2019-04-25T23:20:09.566Z,14.20
2019-04-25T23:22:35.876Z,14.30
2019-04-25T23:25:09.887Z,14.50
2019-04-25T23:27:54.627Z,14.60
2019-04-25T23:30:22.912Z,14.70
2019-04-25T23:32:49.068Z,14.70
2019-04-25T23:35:28.077Z,14.60
2019-04-25T23:37:44.456Z,14.60
2019-04-25T23:40:11.623Z,14.60
2019-04-25T23:42:37.902Z,14.60
2019-04-25T23:45:06.658Z,14.30
2019-04-25T23:47:33.960Z,14.10
2019-04-25T23:50:00.561Z,14.10
2019-04-25T23:52:26.790Z,14.10
2019-04-25T23:54:53.048Z,14.20
2019-04-25T23:57:19.748Z,14.20
2019-04-25T23:59:45.908Z,14.10
